Furney Richardson, Texas
Current Conditions -  °F | °C
As of 12:35 PM on Sunday 21 Dec 2014 (Local Time) from KLXY Reporting Station
Overcast Overcast  
Wind Chill: 50°   Ceiling: 1400
Heat Index: 50°   Visibility: 10mi
Dew Point: 46°   Wind: 10mph
Humidity: 85%   Direction: 180°S
Pressure: 30.03"   Gusts: NA
Location:  31.6463°N, 96.2786°W
Report Text: KLXY 211835Z AUTO 18009KT 10SM OVC014 10/08 A3003 RMK AO2 T01000075
Loading
Personal Weather Stations






























Interactive Weather Map New forecast layout! Learn more

10-Day Weather Forecast

Advertisements
Track Severe Weather on mobile